createdAt,value
2022-10-13T03:55:19.437Z,85.20
2022-10-13T03:58:43.490Z,84.10
2022-10-13T04:02:07.287Z,78.70
2022-10-13T04:05:33.507Z,75.60
2022-10-13T04:08:57.799Z,82.40
2022-10-13T04:12:21.499Z,78.70
2022-10-13T04:15:44.775Z,75.40
2022-10-13T04:19:11.793Z,82.40
2022-10-13T04:22:35.792Z,80.90
2022-10-13T04:25:58.991Z,78.90
2022-10-13T04:29:23.217Z,84.70
2022-10-13T04:32:48.920Z,82.90
2022-10-13T04:36:15.141Z,76.50
2022-10-13T04:39:38.348Z,74.10
2022-10-13T04:43:01.707Z,86.40
2022-10-13T04:46:26.746Z,88.80
2022-10-13T04:49:50.904Z,104.20
2022-10-13T04:53:19.072Z,93.80
2022-10-13T04:56:45.005Z,105.80
2022-10-13T05:00:10.679Z,113.80
2022-10-13T05:03:34.412Z,92.90
2022-10-13T05:07:18.060Z,93.10
2022-10-13T05:10:41.311Z,97.30
2022-10-13T05:14:04.685Z,106.10
2022-10-13T05:17:35.101Z,99.90
2022-10-13T05:21:07.952Z,113.90
2022-10-13T05:24:36.430Z,119.50
2022-10-13T05:27:59.853Z,120.70
2022-10-13T05:31:25.977Z,114.30
2022-10-13T05:34:50.172Z,107.60
2022-10-13T05:38:13.273Z,103.30
2022-10-13T05:41:38.711Z,94.00
2022-10-13T05:45:03.749Z,91.30
2022-10-13T05:48:27.910Z,100.10
2022-10-13T05:51:54.282Z,100.40
2022-10-13T05:55:19.638Z,94.70
2022-10-13T05:58:47.146Z,87.60
2022-10-13T06:02:14.676Z,82.40
2022-10-13T06:05:40.082Z,72.10
2022-10-13T06:09:03.544Z,69.90
2022-10-13T06:12:26.694Z,67.20
2022-10-13T06:15:52.738Z,67.00
2022-10-13T06:19:17.000Z,69.70
2022-10-13T06:22:40.307Z,66.20
2022-10-13T06:26:03.735Z,65.70
2022-10-13T06:29:28.353Z,74.00
2022-10-13T06:32:53.256Z,58.40
2022-10-13T06:36:16.507Z,62.30
2022-10-13T06:39:40.432Z,59.90
2022-10-13T06:43:04.363Z,55.00
2022-10-13T06:46:28.873Z,54.10
2022-10-13T06:49:52.292Z,59.90
2022-10-13T06:53:15.764Z,52.20
2022-10-13T06:56:39.020Z,63.10
2022-10-13T07:00:08.908Z,54.30
2022-10-13T07:03:32.644Z,57.60
2022-10-13T07:06:56.509Z,51.90
2022-10-13T07:10:19.772Z,56.60
2022-10-13T07:13:46.633Z,53.20
2022-10-13T07:17:12.449Z,46.00
2022-10-13T07:20:36.055Z,49.40
2022-10-13T07:23:59.522Z,46.80
2022-10-13T07:27:25.156Z,48.30
2022-10-13T07:30:49.215Z,65.90
2022-10-13T07:34:12.505Z,93.30
2022-10-13T07:37:36.111Z,52.10
2022-10-13T07:41:01.644Z,45.80
2022-10-13T07:44:25.990Z,46.40
2022-10-13T07:47:49.327Z,40.60
2022-10-13T07:51:13.362Z,42.70
2022-10-13T07:54:36.785Z,39.10
2022-10-13T07:58:03.155Z,42.20
2022-10-13T08:01:29.590Z,55.20
2022-10-13T08:04:53.272Z,48.60
2022-10-13T08:08:16.551Z,48.90
2022-10-13T08:11:40.168Z,40.70
2022-10-13T08:15:06.334Z,45.30
2022-10-13T08:18:30.725Z,38.50
2022-10-13T08:21:59.623Z,35.60
2022-10-13T08:25:23.538Z,37.30
2022-10-13T08:29:02.852Z,36.60
2022-10-13T08:32:26.729Z,37.10
2022-10-13T08:35:51.307Z,40.70
2022-10-13T08:39:15.455Z,33.20
2022-10-13T08:42:43.984Z,36.30
2022-10-13T08:46:10.571Z,35.10
2022-10-13T08:49:34.688Z,33.20
2022-10-13T08:53:00.732Z,38.00
2022-10-13T08:56:27.487Z,25.60
2022-10-13T08:59:53.186Z,29.30
2022-10-13T09:03:23.995Z,33.30
2022-10-13T09:06:52.838Z,30.30
2022-10-13T09:10:18.881Z,27.10
2022-10-13T09:13:42.557Z,25.90
2022-10-13T09:17:17.930Z,26.00
2022-10-13T09:20:41.997Z,30.60
2022-10-13T09:24:11.688Z,23.50
2022-10-13T09:31:11.587Z,26.10
2022-10-13T09:34:37.586Z,26.10
2022-10-13T09:38:10.142Z,26.60
2022-10-13T09:41:34.056Z,31.90
2022-10-13T09:45:00.745Z,23.40
2022-10-13T09:48:29.782Z,29.90
2022-10-13T09:51:58.886Z,24.70
2022-10-13T09:55:32.844Z,22.60
2022-10-13T09:59:05.664Z,25.40
2022-10-13T10:02:33.857Z,25.00
2022-10-13T10:06:00.617Z,24.00
2022-10-13T10:09:34.635Z,21.50
2022-10-13T10:12:57.919Z,19.70
2022-10-13T10:16:30.625Z,20.50
2022-10-13T10:20:03.357Z,20.50
2022-10-13T10:23:37.566Z,19.70
2022-10-13T10:27:05.678Z,27.60
2022-10-13T10:30:31.054Z,22.40
2022-10-13T10:34:06.184Z,24.10
2022-10-13T10:37:55.107Z,20.30
2022-10-13T10:41:36.013Z,18.80
2022-10-13T10:45:03.091Z,22.40
2022-10-13T10:48:32.704Z,23.40
2022-10-13T10:55:25.408Z,17.80
2022-10-13T10:59:00.358Z,18.00
2022-10-13T11:02:42.431Z,18.10
2022-10-13T11:06:21.422Z,19.80
2022-10-13T11:10:16.970Z,19.80
2022-10-13T11:13:52.047Z,21.70
2022-10-13T11:17:18.980Z,16.00
2022-10-13T11:20:58.819Z,17.00
2022-10-13T11:28:42.830Z,18.10
2022-10-13T11:32:55.183Z,18.10
2022-10-13T11:36:50.824Z,18.30
2022-10-13T11:40:24.918Z,21.00
2022-10-13T11:43:55.675Z,14.50
2022-10-13T11:47:43.558Z,18.70
2022-10-13T11:51:20.313Z,18.40
2022-10-13T11:54:50.864Z,16.00
2022-10-13T11:58:18.674Z,20.10
2022-10-13T12:01:45.082Z,18.90
2022-10-13T12:05:22.080Z,19.50
2022-10-13T12:08:49.736Z,17.60
2022-10-13T12:12:16.987Z,19.60
2022-10-13T12:15:43.062Z,18.00
2022-10-13T12:19:20.290Z,15.20
2022-10-13T12:22:49.016Z,19.40
2022-10-13T12:26:17.498Z,20.50
2022-10-13T12:29:41.009Z,14.60
2022-10-13T12:33:19.119Z,21.80
2022-10-13T12:36:45.396Z,18.60
2022-10-13T12:40:15.138Z,15.00
2022-10-13T12:43:39.485Z,14.50
2022-10-13T12:47:03.815Z,24.00
2022-10-13T12:50:37.970Z,33.10
2022-10-13T12:54:05.625Z,16.30
2022-10-13T12:57:35.359Z,18.90
2022-10-13T13:01:08.322Z,20.20
2022-10-13T13:04:40.987Z,27.40
2022-10-13T13:08:19.862Z,24.50
2022-10-13T13:11:43.242Z,15.60
2022-10-13T13:15:36.925Z,26.40
2022-10-13T13:19:00.266Z,18.90
2022-10-13T13:22:25.530Z,21.50
2022-10-13T13:25:59.314Z,22.40
2022-10-13T13:29:22.999Z,20.30
2022-10-13T13:32:46.718Z,21.50
2022-10-13T13:36:17.690Z,16.80
2022-10-13T13:39:42.828Z,15.00
2022-10-13T13:43:08.051Z,19.40
2022-10-13T13:46:31.926Z,19.10
2022-10-13T13:49:56.517Z,17.60
2022-10-13T13:53:20.081Z,18.60
2022-10-13T13:56:43.603Z,17.70
2022-10-13T14:00:10.274Z,19.20
2022-10-13T14:03:35.211Z,16.70
2022-10-13T14:07:01.077Z,21.50
2022-10-13T14:10:26.044Z,17.60
2022-10-13T14:13:49.525Z,19.50
2022-10-13T14:17:20.662Z,18.00
2022-10-13T14:20:44.115Z,17.50
2022-10-13T14:24:09.721Z,17.40
2022-10-13T14:27:36.024Z,21.00
2022-10-13T14:30:59.765Z,16.20
2022-10-13T14:34:23.583Z,18.40
2022-10-13T14:37:46.911Z,36.80
2022-10-13T14:41:10.231Z,18.90
2022-10-13T14:44:34.015Z,30.10
2022-10-13T14:47:57.318Z,22.10
2022-10-13T14:51:20.984Z,20.20
2022-10-13T14:54:45.188Z,17.60
2022-10-13T14:58:09.078Z,18.40
2022-10-13T15:01:33.150Z,16.00
2022-10-13T15:04:57.403Z,16.70
2022-10-13T15:08:20.901Z,17.20
2022-10-13T15:11:45.659Z,18.70
2022-10-13T15:15:10.942Z,23.90
2022-10-13T15:18:35.894Z,19.30
2022-10-13T15:21:59.704Z,17.40
2022-10-13T15:25:23.584Z,21.00
2022-10-13T15:28:49.098Z,23.30
2022-10-13T15:32:17.514Z,22.50
2022-10-13T15:35:48.109Z,19.60
2022-10-13T15:39:11.595Z,39.20
2022-10-13T15:42:34.962Z,36.40
2022-10-13T15:46:02.175Z,40.30
2022-10-13T15:49:26.049Z,44.10
2022-10-13T15:52:49.727Z,43.90
2022-10-13T15:56:12.929Z,32.00
2022-10-13T15:59:36.228Z,35.20
2022-10-13T16:02:59.480Z,34.80
2022-10-13T16:06:22.790Z,41.90
2022-10-13T16:09:46.068Z,47.80
2022-10-13T16:13:13.572Z,39.70
2022-10-13T16:16:36.748Z,50.80
2022-10-13T16:20:00.603Z,53.30
2022-10-13T16:23:24.253Z,56.20
2022-10-13T16:26:47.443Z,55.70
2022-10-13T16:30:12.723Z,57.20
2022-10-13T16:33:36.553Z,62.60
2022-10-13T16:36:59.738Z,123.60
2022-10-13T16:40:23.074Z,131.10
2022-10-13T16:43:47.830Z,84.00
2022-10-13T16:47:13.627Z,74.60
2022-10-13T16:50:40.674Z,54.70
2022-10-13T16:54:05.014Z,64.90
2022-10-13T16:57:30.781Z,57.60
2022-10-13T17:01:01.271Z,57.30
2022-10-13T17:04:24.873Z,57.40
2022-10-13T17:07:48.717Z,61.70
2022-10-13T17:11:17.711Z,61.90
2022-10-13T17:14:41.006Z,69.50
2022-10-13T17:18:04.705Z,77.30
2022-10-13T17:21:28.232Z,63.60
2022-10-13T17:24:51.500Z,66.20
2022-10-13T17:28:15.240Z,70.20
2022-10-13T17:31:38.579Z,60.90
2022-10-13T17:35:02.355Z,75.20
2022-10-13T17:38:25.669Z,65.80
2022-10-13T17:41:48.970Z,52.00
2022-10-13T17:45:13.102Z,55.20
2022-10-13T17:48:37.026Z,54.80
2022-10-13T17:52:00.931Z,53.90
2022-10-13T17:55:24.713Z,57.80
2022-10-13T17:58:49.009Z,59.80
2022-10-13T18:02:13.977Z,55.10
2022-10-13T18:05:42.087Z,64.90
2022-10-13T18:09:07.784Z,70.90
2022-10-13T18:12:31.397Z,64.80
2022-10-13T18:15:55.213Z,69.70
2022-10-13T18:19:19.972Z,61.20
2022-10-13T18:22:43.319Z,66.80
2022-10-13T18:26:11.204Z,68.70
2022-10-13T18:31:16.161Z,61.80
2022-10-13T18:34:42.953Z,62.90
2022-10-13T18:38:09.639Z,62.10
2022-10-13T18:41:39.670Z,53.40
2022-10-13T18:45:07.855Z,44.90
2022-10-13T18:48:36.931Z,58.50
2022-10-13T18:52:04.550Z,51.10
2022-10-13T18:55:31.344Z,48.70
2022-10-13T18:59:00.266Z,50.10
2022-10-13T19:02:27.970Z,45.30
2022-10-13T19:05:54.819Z,63.60
2022-10-13T19:09:24.223Z,61.30
2022-10-13T19:12:50.947Z,66.40
2022-10-13T19:16:23.116Z,58.10
2022-10-13T19:19:49.942Z,72.40
2022-10-13T19:23:18.262Z,55.40
2022-10-13T19:26:44.903Z,66.30
2022-10-13T19:30:14.269Z,64.00
2022-10-13T19:33:44.668Z,63.40
2022-10-13T19:37:11.901Z,64.50
2022-10-13T19:40:42.476Z,73.30
2022-10-13T19:44:09.460Z,64.80
2022-10-13T19:51:06.592Z,58.10
2022-10-13T19:54:35.863Z,57.40
2022-10-13T19:58:02.767Z,72.40
2022-10-13T20:01:29.657Z,64.70
2022-10-13T20:04:57.428Z,61.90
2022-10-13T20:08:24.408Z,59.70
2022-10-13T20:11:52.110Z,65.80
2022-10-13T20:15:18.923Z,53.20
2022-10-13T20:18:46.860Z,64.60
2022-10-13T20:22:13.762Z,57.80
2022-10-13T20:25:40.731Z,72.10
2022-10-13T20:29:07.385Z,69.50
2022-10-13T20:32:34.619Z,67.90
2022-10-13T20:36:03.299Z,63.70
2022-10-13T20:39:30.126Z,68.00
2022-10-13T20:42:56.722Z,72.60
2022-10-13T20:46:25.149Z,71.10
2022-10-13T20:49:52.720Z,72.70
2022-10-13T20:53:19.508Z,75.50
2022-10-13T20:56:49.392Z,83.70
2022-10-13T21:00:16.999Z,69.30
2022-10-13T21:03:44.365Z,66.80
2022-10-13T21:07:11.766Z,75.90
2022-10-13T21:10:39.781Z,76.10
2022-10-13T21:14:09.684Z,66.60
2022-10-13T21:17:42.521Z,73.80
2022-10-13T21:21:12.392Z,63.40
2022-10-13T21:24:41.185Z,71.50
2022-10-13T21:28:08.695Z,64.90
2022-10-13T21:31:36.950Z,74.70
2022-10-13T21:35:04.141Z,72.40
2022-10-13T21:38:30.929Z,74.60
2022-10-13T21:41:57.740Z,77.20
2022-10-13T21:45:26.308Z,70.00
2022-10-13T21:48:56.612Z,72.10
2022-10-13T21:52:23.654Z,68.80
2022-10-13T21:55:50.338Z,69.20
2022-10-13T21:59:17.024Z,73.20
2022-10-13T22:02:43.594Z,72.10
2022-10-13T22:06:18.295Z,77.40
2022-10-13T22:09:45.919Z,70.20
2022-10-13T22:13:12.699Z,67.30
2022-10-13T22:16:42.193Z,70.90
2022-10-13T22:20:10.535Z,70.80
2022-10-13T22:23:37.641Z,81.00
2022-10-13T22:27:04.259Z,71.40
2022-10-13T22:30:31.085Z,75.60
2022-10-13T22:33:58.347Z,69.40
2022-10-13T22:37:24.922Z,70.00
2022-10-13T22:40:51.564Z,76.20
2022-10-13T22:44:18.800Z,77.20
2022-10-13T22:47:45.391Z,76.80
